sensor_id;sensor_type;location;lat;lon;timestamp;P1;durP1;ratioP1;P2;durP2;ratioP2
76236;SDS011;65038;53.200;6.530;2023-02-20T00:03:53;12.32;;;6.35;;
76236;SDS011;65038;53.200;6.530;2023-02-20T00:09:35;13.40;;;6.60;;
76236;SDS011;65038;53.200;6.530;2023-02-20T00:14:50;12.27;;;6.78;;
76236;SDS011;65038;53.200;6.530;2023-02-20T00:17:16;14.90;;;7.50;;
76236;SDS011;65038;53.200;6.530;2023-02-20T00:19:42;12.82;;;6.97;;
76236;SDS011;65038;53.200;6.530;2023-02-20T00:22:08;17.17;;;8.20;;
76236;SDS011;65038;53.200;6.530;2023-02-20T00:24:53;15.93;;;8.90;;
76236;SDS011;65038;53.200;6.530;2023-02-20T00:27:19;17.92;;;8.80;;
76236;SDS011;65038;53.200;6.530;2023-02-20T00:29:45;18.33;;;9.80;;
76236;SDS011;65038;53.200;6.530;2023-02-20T00:32:11;17.55;;;10.20;;
76236;SDS011;65038;53.200;6.530;2023-02-20T00:34:38;18.13;;;10.43;;
76236;SDS011;65038;53.200;6.530;2023-02-20T00:40:11;19.05;;;11.10;;
76236;SDS011;65038;53.200;6.530;2023-02-20T00:48:43;19.85;;;11.88;;
76236;SDS011;65038;53.200;6.530;2023-02-20T00:51:09;19.70;;;11.88;;
76236;SDS011;65038;53.200;6.530;2023-02-20T00:53:35;22.27;;;12.70;;
76236;SDS011;65038;53.200;6.530;2023-02-20T00:56:01;20.60;;;11.63;;
76236;SDS011;65038;53.200;6.530;2023-02-20T00:58:27;19.95;;;11.57;;
76236;SDS011;65038;53.200;6.530;2023-02-20T01:04:00;22.55;;;12.73;;
76236;SDS011;65038;53.200;6.530;2023-02-20T01:06:26;19.00;;;12.20;;
76236;SDS011;65038;53.200;6.530;2023-02-20T01:08:52;20.00;;;11.60;;
76236;SDS011;65038;53.200;6.530;2023-02-20T01:11:18;19.27;;;11.98;;
76236;SDS011;65038;53.200;6.530;2023-02-20T01:13:44;21.50;;;11.27;;
76236;SDS011;65038;53.200;6.530;2023-02-20T01:16:10;19.38;;;11.57;;
76236;SDS011;65038;53.200;6.530;2023-02-20T01:18:36;20.70;;;11.48;;
76236;SDS011;65038;53.200;6.530;2023-02-20T01:21:10;17.90;;;11.43;;
76236;SDS011;65038;53.200;6.530;2023-02-20T01:26:48;19.02;;;11.40;;
76236;SDS011;65038;53.200;6.530;2023-02-20T01:32:20;18.20;;;11.13;;
76236;SDS011;65038;53.200;6.530;2023-02-20T01:34:46;19.13;;;11.73;;
76236;SDS011;65038;53.200;6.530;2023-02-20T01:37:12;18.40;;;11.18;;
76236;SDS011;65038;53.200;6.530;2023-02-20T01:39:40;21.20;;;11.27;;
76236;SDS011;65038;53.200;6.530;2023-02-20T01:47:47;18.15;;;10.32;;
76236;SDS011;65038;53.200;6.530;2023-02-20T01:50:14;17.73;;;10.73;;
76236;SDS011;65038;53.200;6.530;2023-02-20T01:52:43;18.45;;;10.80;;
76236;SDS011;65038;53.200;6.530;2023-02-20T01:55:17;17.98;;;10.27;;
76236;SDS011;65038;53.200;6.530;2023-02-20T01:57:47;16.10;;;10.20;;
76236;SDS011;65038;53.200;6.530;2023-02-20T02:24:05;16.73;;;10.02;;
76236;SDS011;65038;53.200;6.530;2023-02-20T02:48:11;19.05;;;10.80;;
76236;SDS011;65038;53.200;6.530;2023-02-20T03:11:37;21.50;;;10.60;;
76236;SDS011;65038;53.200;6.530;2023-02-20T03:17:22;19.77;;;11.20;;
76236;SDS011;65038;53.200;6.530;2023-02-20T03:20:09;25.13;;;11.43;;
76236;SDS011;65038;53.200;6.530;2023-02-20T03:22:36;20.88;;;10.70;;
76236;SDS011;65038;53.200;6.530;2023-02-20T03:28:13;20.65;;;10.82;;
76236;SDS011;65038;53.200;6.530;2023-02-20T03:33:55;22.85;;;11.95;;
76236;SDS011;65038;53.200;6.530;2023-02-20T03:42:32;25.70;;;10.90;;
76236;SDS011;65038;53.200;6.530;2023-02-20T03:45:17;23.48;;;11.48;;
76236;SDS011;65038;53.200;6.530;2023-02-20T03:47:44;24.38;;;11.85;;
76236;SDS011;65038;53.200;6.530;2023-02-20T03:50:14;26.83;;;12.13;;
76236;SDS011;65038;53.200;6.530;2023-02-20T03:52:59;25.77;;;11.38;;
76236;SDS011;65038;53.200;6.530;2023-02-20T03:55:25;25.95;;;11.57;;
76236;SDS011;65038;53.200;6.530;2023-02-20T03:57:52;29.40;;;12.00;;
76236;SDS011;65038;53.200;6.530;2023-02-20T04:00:21;26.65;;;11.95;;
76236;SDS011;65038;53.200;6.530;2023-02-20T04:02:49;25.48;;;10.98;;
76236;SDS011;65038;53.200;6.530;2023-02-20T04:05:22;22.02;;;10.80;;
76236;SDS011;65038;53.200;6.530;2023-02-20T04:10:30;27.30;;;12.25;;
76236;SDS011;65038;53.200;6.530;2023-02-20T04:12:59;25.58;;;11.52;;
76236;SDS011;65038;53.200;6.530;2023-02-20T04:15:25;27.10;;;11.10;;
76236;SDS011;65038;53.200;6.530;2023-02-20T04:17:54;23.73;;;11.18;;
76236;SDS011;65038;53.200;6.530;2023-02-20T04:20:21;27.17;;;11.30;;
76236;SDS011;65038;53.200;6.530;2023-02-20T04:22:47;26.50;;;10.93;;
76236;SDS011;65038;53.200;6.530;2023-02-20T04:28:00;26.13;;;11.20;;
76236;SDS011;65038;53.200;6.530;2023-02-20T04:30:26;25.02;;;10.10;;
76236;SDS011;65038;53.200;6.530;2023-02-20T04:32:53;25.40;;;11.07;;
76236;SDS011;65038;53.200;6.530;2023-02-20T04:35:19;29.27;;;11.27;;
76236;SDS011;65038;53.200;6.530;2023-02-20T04:37:45;26.95;;;11.40;;
76236;SDS011;65038;53.200;6.530;2023-02-20T04:40:13;28.23;;;11.13;;
76236;SDS011;65038;53.200;6.530;2023-02-20T04:42:39;32.08;;;11.50;;
76236;SDS011;65038;53.200;6.530;2023-02-20T04:45:05;24.23;;;10.70;;
76236;SDS011;65038;53.200;6.530;2023-02-20T04:47:32;28.70;;;10.77;;
76236;SDS011;65038;53.200;6.530;2023-02-20T04:49:58;23.00;;;10.25;;
76236;SDS011;65038;53.200;6.530;2023-02-20T04:55:27;30.65;;;10.45;;
76236;SDS011;65038;53.200;6.530;2023-02-20T05:06:09;26.52;;;10.75;;
76236;SDS011;65038;53.200;6.530;2023-02-20T05:08:36;24.98;;;10.07;;
76236;SDS011;65038;53.200;6.530;2023-02-20T05:11:02;27.38;;;10.18;;
76236;SDS011;65038;53.200;6.530;2023-02-20T05:13:28;24.38;;;10.70;;
76236;SDS011;65038;53.200;6.530;2023-02-20T05:15:54;26.88;;;10.70;;
76236;SDS011;65038;53.200;6.530;2023-02-20T05:18:24;27.35;;;10.00;;
76236;SDS011;65038;53.200;6.530;2023-02-20T05:20:50;26.55;;;10.68;;
76236;SDS011;65038;53.200;6.530;2023-02-20T05:23:35;22.80;;;10.27;;
76236;SDS011;65038;53.200;6.530;2023-02-20T05:26:01;26.25;;;10.10;;
76236;SDS011;65038;53.200;6.530;2023-02-20T05:28:27;28.73;;;10.55;;
76236;SDS011;65038;53.200;6.530;2023-02-20T05:30:53;25.92;;;10.93;;
76236;SDS011;65038;53.200;6.530;2023-02-20T05:33:19;29.20;;;10.75;;
76236;SDS011;65038;53.200;6.530;2023-02-20T05:35:45;29.02;;;10.07;;
76236;SDS011;65038;53.200;6.530;2023-02-20T05:41:15;26.25;;;10.63;;
76236;SDS011;65038;53.200;6.530;2023-02-20T05:43:41;23.25;;;10.00;;
76236;SDS011;65038;53.200;6.530;2023-02-20T05:46:07;23.90;;;9.98;;
76236;SDS011;65038;53.200;6.530;2023-02-20T05:48:33;25.92;;;9.93;;
76236;SDS011;65038;53.200;6.530;2023-02-20T05:50:59;21.23;;;9.02;;
76236;SDS011;65038;53.200;6.530;2023-02-20T05:53:28;24.00;;;9.27;;
76236;SDS011;65038;53.200;6.530;2023-02-20T05:55:55;24.83;;;9.30;;
76236;SDS011;65038;53.200;6.530;2023-02-20T05:58:21;27.17;;;9.52;;
76236;SDS011;65038;53.200;6.530;2023-02-20T06:00:47;22.00;;;9.40;;
76236;SDS011;65038;53.200;6.530;2023-02-20T06:03:14;23.95;;;8.88;;
76236;SDS011;65038;53.200;6.530;2023-02-20T06:05:40;24.17;;;9.20;;
76236;SDS011;65038;53.200;6.530;2023-02-20T06:08:06;21.02;;;8.80;;
76236;SDS011;65038;53.200;6.530;2023-02-20T06:10:32;25.70;;;9.27;;
76236;SDS011;65038;53.200;6.530;2023-02-20T06:12:58;20.23;;;8.77;;
76236;SDS011;65038;53.200;6.530;2023-02-20T06:15:24;22.17;;;8.52;;
76236;SDS011;65038;53.200;6.530;2023-02-20T06:17:50;22.67;;;8.60;;
76236;SDS011;65038;53.200;6.530;2023-02-20T06:20:16;24.15;;;9.32;;
76236;SDS011;65038;53.200;6.530;2023-02-20T06:22:42;24.35;;;7.95;;
76236;SDS011;65038;53.200;6.530;2023-02-20T06:25:09;22.00;;;8.70;;
76236;SDS011;65038;53.200;6.530;2023-02-20T06:27:37;20.92;;;8.30;;
76236;SDS011;65038;53.200;6.530;2023-02-20T06:30:03;21.85;;;8.25;;
76236;SDS011;65038;53.200;6.530;2023-02-20T06:32:29;18.90;;;7.82;;
76236;SDS011;65038;53.200;6.530;2023-02-20T06:34:55;22.33;;;7.75;;
76236;SDS011;65038;53.200;6.530;2023-02-20T06:37:21;19.95;;;7.88;;
76236;SDS011;65038;53.200;6.530;2023-02-20T06:39:47;20.38;;;7.28;;
76236;SDS011;65038;53.200;6.530;2023-02-20T06:42:14;19.15;;;8.10;;
76236;SDS011;65038;53.200;6.530;2023-02-20T06:44:40;17.55;;;7.25;;
76236;SDS011;65038;53.200;6.530;2023-02-20T06:47:06;20.73;;;7.65;;
76236;SDS011;65038;53.200;6.530;2023-02-20T06:49:36;22.95;;;7.20;;
76236;SDS011;65038;53.200;6.530;2023-02-20T06:52:02;18.55;;;7.13;;
76236;SDS011;65038;53.200;6.530;2023-02-20T06:54:28;24.13;;;7.70;;
76236;SDS011;65038;53.200;6.530;2023-02-20T06:56:54;19.15;;;7.53;;
76236;SDS011;65038;53.200;6.530;2023-02-20T06:59:21;20.63;;;7.32;;
76236;SDS011;65038;53.200;6.530;2023-02-20T07:01:47;17.35;;;6.95;;
76236;SDS011;65038;53.200;6.530;2023-02-20T07:10:10;18.52;;;7.50;;
76236;SDS011;65038;53.200;6.530;2023-02-20T07:12:37;18.08;;;7.05;;
76236;SDS011;65038;53.200;6.530;2023-02-20T07:15:05;18.52;;;7.25;;
76236;SDS011;65038;53.200;6.530;2023-02-20T07:17:32;21.70;;;7.55;;
76236;SDS011;65038;53.200;6.530;2023-02-20T07:19:58;18.67;;;7.38;;
76236;SDS011;65038;53.200;6.530;2023-02-20T07:22:24;18.95;;;7.53;;
76236;SDS011;65038;53.200;6.530;2023-02-20T07:24:50;17.88;;;6.82;;
76236;SDS011;65038;53.200;6.530;2023-02-20T07:27:16;22.42;;;7.40;;
76236;SDS011;65038;53.200;6.530;2023-02-20T07:29:46;16.00;;;7.22;;
76236;SDS011;65038;53.200;6.530;2023-02-20T07:32:14;17.50;;;7.13;;
76236;SDS011;65038;53.200;6.530;2023-02-20T07:34:44;16.75;;;7.35;;
76236;SDS011;65038;53.200;6.530;2023-02-20T07:37:10;22.27;;;7.63;;
76236;SDS011;65038;53.200;6.530;2023-02-20T07:39:36;17.85;;;7.20;;
76236;SDS011;65038;53.200;6.530;2023-02-20T07:42:02;15.50;;;6.47;;
76236;SDS011;65038;53.200;6.530;2023-02-20T07:44:28;15.25;;;6.90;;
76236;SDS011;65038;53.200;6.530;2023-02-20T07:46:54;16.30;;;6.47;;
76236;SDS011;65038;53.200;6.530;2023-02-20T07:49:20;17.50;;;6.78;;
76236;SDS011;65038;53.200;6.530;2023-02-20T07:51:46;16.77;;;6.68;;
76236;SDS011;65038;53.200;6.530;2023-02-20T07:54:12;15.05;;;6.45;;
76236;SDS011;65038;53.200;6.530;2023-02-20T07:56:39;16.27;;;6.55;;
76236;SDS011;65038;53.200;6.530;2023-02-20T07:59:05;15.73;;;6.35;;
76236;SDS011;65038;53.200;6.530;2023-02-20T08:01:31;18.60;;;6.47;;
76236;SDS011;65038;53.200;6.530;2023-02-20T08:03:57;13.60;;;6.10;;
76236;SDS011;65038;53.200;6.530;2023-02-20T08:06:23;15.55;;;6.25;;
76236;SDS011;65038;53.200;6.530;2023-02-20T08:08:50;21.85;;;6.75;;
76236;SDS011;65038;53.200;6.530;2023-02-20T08:11:19;14.75;;;5.88;;
76236;SDS011;65038;53.200;6.530;2023-02-20T08:13:45;13.93;;;6.10;;
76236;SDS011;65038;53.200;6.530;2023-02-20T08:16:11;16.77;;;6.25;;
76236;SDS011;65038;53.200;6.530;2023-02-20T08:18:37;15.82;;;6.20;;
76236;SDS011;65038;53.200;6.530;2023-02-20T08:21:03;17.05;;;6.03;;
76236;SDS011;65038;53.200;6.530;2023-02-20T08:23:30;20.80;;;6.60;;
76236;SDS011;65038;53.200;6.530;2023-02-20T08:25:56;15.38;;;6.40;;
76236;SDS011;65038;53.200;6.530;2023-02-20T08:28:22;16.52;;;6.18;;
76236;SDS011;65038;53.200;6.530;2023-02-20T08:30:48;18.15;;;6.82;;
76236;SDS011;65038;53.200;6.530;2023-02-20T08:33:14;12.07;;;6.38;;
76236;SDS011;65038;53.200;6.530;2023-02-20T08:35:40;16.13;;;6.18;;
76236;SDS011;65038;53.200;6.530;2023-02-20T08:38:07;15.13;;;6.10;;
76236;SDS011;65038;53.200;6.530;2023-02-20T08:40:46;15.70;;;7.15;;
76236;SDS011;65038;53.200;6.530;2023-02-20T08:43:12;13.50;;;6.30;;
76236;SDS011;65038;53.200;6.530;2023-02-20T08:45:38;16.92;;;7.05;;
76236;SDS011;65038;53.200;6.530;2023-02-20T08:48:04;17.73;;;7.28;;
76236;SDS011;65038;53.200;6.530;2023-02-20T08:50:30;13.38;;;6.22;;
76236;SDS011;65038;53.200;6.530;2023-02-20T08:52:56;16.83;;;6.57;;
76236;SDS011;65038;53.200;6.530;2023-02-20T08:55:24;15.38;;;6.38;;
76236;SDS011;65038;53.200;6.530;2023-02-20T08:57:50;14.20;;;6.38;;
76236;SDS011;65038;53.200;6.530;2023-02-20T09:00:16;15.23;;;6.53;;
76236;SDS011;65038;53.200;6.530;2023-02-20T09:02:43;17.98;;;6.32;;
76236;SDS011;65038;53.200;6.530;2023-02-20T09:05:09;12.57;;;6.18;;
76236;SDS011;65038;53.200;6.530;2023-02-20T09:07:35;14.85;;;6.20;;
76236;SDS011;65038;53.200;6.530;2023-02-20T09:10:01;21.48;;;6.43;;
76236;SDS011;65038;53.200;6.530;2023-02-20T09:12:27;15.02;;;5.82;;
76236;SDS011;65038;53.200;6.530;2023-02-20T09:14:54;12.25;;;6.07;;
76236;SDS011;65038;53.200;6.530;2023-02-20T09:17:20;15.07;;;6.35;;
76236;SDS011;65038;53.200;6.530;2023-02-20T09:19:46;13.65;;;5.82;;
76236;SDS011;65038;53.200;6.530;2023-02-20T09:22:12;14.63;;;5.35;;
76236;SDS011;65038;53.200;6.530;2023-02-20T09:24:40;13.32;;;5.43;;
76236;SDS011;65038;53.200;6.530;2023-02-20T09:27:06;15.48;;;5.45;;
76236;SDS011;65038;53.200;6.530;2023-02-20T09:29:33;14.27;;;5.75;;
76236;SDS011;65038;53.200;6.530;2023-02-20T09:32:03;16.58;;;5.90;;
76236;SDS011;65038;53.200;6.530;2023-02-20T09:34:29;15.68;;;5.75;;
76236;SDS011;65038;53.200;6.530;2023-02-20T09:36:55;16.20;;;6.03;;
76236;SDS011;65038;53.200;6.530;2023-02-20T09:39:21;14.85;;;5.53;;
76236;SDS011;65038;53.200;6.530;2023-02-20T09:46:45;13.10;;;5.82;;
76236;SDS011;65038;53.200;6.530;2023-02-20T09:49:16;14.48;;;5.80;;
76236;SDS011;65038;53.200;6.530;2023-02-20T09:51:44;15.25;;;6.57;;
76236;SDS011;65038;53.200;6.530;2023-02-20T09:54:15;17.48;;;6.55;;
76236;SDS011;65038;53.200;6.530;2023-02-20T09:56:48;13.07;;;5.90;;
76236;SDS011;65038;53.200;6.530;2023-02-20T09:59:16;16.02;;;6.30;;
76236;SDS011;65038;53.200;6.530;2023-02-20T10:01:54;17.38;;;6.25;;
76236;SDS011;65038;53.200;6.530;2023-02-20T10:04:25;14.73;;;6.40;;
76236;SDS011;65038;53.200;6.530;2023-02-20T10:06:53;19.63;;;6.00;;
76236;SDS011;65038;53.200;6.530;2023-02-20T10:09:24;15.00;;;6.03;;
76236;SDS011;65038;53.200;6.530;2023-02-20T10:16:50;16.50;;;5.68;;
76236;SDS011;65038;53.200;6.530;2023-02-20T10:20:08;17.33;;;6.72;;
76236;SDS011;65038;53.200;6.530;2023-02-20T10:22:15;15.65;;;6.15;;
76236;SDS011;65038;53.200;6.530;2023-02-20T10:27:26;15.38;;;6.25;;
76236;SDS011;65038;53.200;6.530;2023-02-20T10:29:54;18.90;;;6.70;;
76236;SDS011;65038;53.200;6.530;2023-02-20T10:32:23;15.15;;;6.28;;
76236;SDS011;65038;53.200;6.530;2023-02-20T10:35:02;16.60;;;6.13;;
76236;SDS011;65038;53.200;6.530;2023-02-20T10:37:37;15.32;;;6.25;;
76236;SDS011;65038;53.200;6.530;2023-02-20T10:40:08;12.98;;;6.10;;
76236;SDS011;65038;53.200;6.530;2023-02-20T10:42:38;16.67;;;6.30;;
76236;SDS011;65038;53.200;6.530;2023-02-20T10:45:09;14.70;;;6.03;;
76236;SDS011;65038;53.200;6.530;2023-02-20T10:47:45;12.63;;;5.93;;
76236;SDS011;65038;53.200;6.530;2023-02-20T10:50:17;17.60;;;6.03;;
76236;SDS011;65038;53.200;6.530;2023-02-20T10:52:47;14.45;;;5.72;;
76236;SDS011;65038;53.200;6.530;2023-02-20T10:57:59;14.67;;;5.60;;
76236;SDS011;65038;53.200;6.530;2023-02-20T11:03:07;13.93;;;5.70;;
76236;SDS011;65038;53.200;6.530;2023-02-20T11:05:35;15.32;;;5.50;;
76236;SDS011;65038;53.200;6.530;2023-02-20T11:08:04;14.48;;;5.28;;
76236;SDS011;65038;53.200;6.530;2023-02-20T11:10:30;14.60;;;6.03;;
76236;SDS011;65038;53.200;6.530;2023-02-20T11:12:59;16.20;;;5.40;;
76236;SDS011;65038;53.200;6.530;2023-02-20T11:15:27;13.60;;;4.97;;
76236;SDS011;65038;53.200;6.530;2023-02-20T11:17:55;12.75;;;5.07;;
76236;SDS011;65038;53.200;6.530;2023-02-20T11:23:07;12.07;;;4.75;;
76236;SDS011;65038;53.200;6.530;2023-02-20T11:25:36;10.43;;;4.97;;
76236;SDS011;65038;53.200;6.530;2023-02-20T11:28:21;12.77;;;4.82;;
76236;SDS011;65038;53.200;6.530;2023-02-20T11:30:49;11.95;;;4.95;;
76236;SDS011;65038;53.200;6.530;2023-02-20T11:33:23;13.35;;;5.07;;
76236;SDS011;65038;53.200;6.530;2023-02-20T11:35:57;12.65;;;4.97;;
76236;SDS011;65038;53.200;6.530;2023-02-20T11:38:33;13.93;;;4.80;;
76236;SDS011;65038;53.200;6.530;2023-02-20T11:41:01;12.90;;;4.82;;
76236;SDS011;65038;53.200;6.530;2023-02-20T11:43:42;12.02;;;4.75;;
76236;SDS011;65038;53.200;6.530;2023-02-20T11:46:16;17.58;;;5.18;;
76236;SDS011;65038;53.200;6.530;2023-02-20T11:54:17;13.45;;;5.45;;
76236;SDS011;65038;53.200;6.530;2023-02-20T11:56:55;13.73;;;4.80;;
76236;SDS011;65038;53.200;6.530;2023-02-20T11:59:39;20.58;;;5.35;;
76236;SDS011;65038;53.200;6.530;2023-02-20T12:07:26;13.55;;;4.70;;
76236;SDS011;65038;53.200;6.530;2023-02-20T12:09:53;13.75;;;4.50;;
76236;SDS011;65038;53.200;6.530;2023-02-20T12:12:20;13.07;;;4.75;;
76236;SDS011;65038;53.200;6.530;2023-02-20T12:14:48;14.35;;;4.93;;
76236;SDS011;65038;53.200;6.530;2023-02-20T12:17:33;10.57;;;4.55;;
76236;SDS011;65038;53.200;6.530;2023-02-20T12:20:11;13.40;;;4.45;;
76236;SDS011;65038;53.200;6.530;2023-02-20T12:22:43;13.75;;;4.78;;
76236;SDS011;65038;53.200;6.530;2023-02-20T12:25:53;12.20;;;4.90;;
76236;SDS011;65038;53.200;6.530;2023-02-20T12:41:13;15.52;;;5.20;;
76236;SDS011;65038;53.200;6.530;2023-02-20T12:54:49;13.82;;;4.70;;
76236;SDS011;65038;53.200;6.530;2023-02-20T12:57:27;14.02;;;4.35;;
76236;SDS011;65038;53.200;6.530;2023-02-20T12:59:59;12.05;;;4.45;;
76236;SDS011;65038;53.200;6.530;2023-02-20T13:02:32;16.33;;;4.43;;
76236;SDS011;65038;53.200;6.530;2023-02-20T13:05:00;11.57;;;4.13;;
76236;SDS011;65038;53.200;6.530;2023-02-20T13:07:28;15.70;;;4.70;;
76236;SDS011;65038;53.200;6.530;2023-02-20T13:09:58;11.88;;;4.60;;
76236;SDS011;65038;53.200;6.530;2023-02-20T13:12:27;16.45;;;4.70;;
76236;SDS011;65038;53.200;6.530;2023-02-20T13:22:40;13.05;;;4.28;;
76236;SDS011;65038;53.200;6.530;2023-02-20T13:30:38;13.52;;;4.20;;
76236;SDS011;65038;53.200;6.530;2023-02-20T13:33:17;15.70;;;4.63;;
76236;SDS011;65038;53.200;6.530;2023-02-20T13:35:55;11.32;;;4.47;;
76236;SDS011;65038;53.200;6.530;2023-02-20T13:38:23;18.00;;;5.38;;
76236;SDS011;65038;53.200;6.530;2023-02-20T13:43:25;13.38;;;4.60;;
76236;SDS011;65038;53.200;6.530;2023-02-20T13:51:53;12.50;;;4.25;;
76236;SDS011;65038;53.200;6.530;2023-02-20T13:53:56;15.55;;;4.68;;
76236;SDS011;65038;53.200;6.530;2023-02-20T13:59:04;14.68;;;4.70;;
76236;SDS011;65038;53.200;6.530;2023-02-20T14:01:54;15.40;;;4.57;;
76236;SDS011;65038;53.200;6.530;2023-02-20T14:04:21;11.88;;;4.53;;
76236;SDS011;65038;53.200;6.530;2023-02-20T14:06:51;16.63;;;4.80;;
76236;SDS011;65038;53.200;6.530;2023-02-20T14:09:21;11.70;;;4.32;;
76236;SDS011;65038;53.200;6.530;2023-02-20T14:11:48;15.82;;;4.82;;
76236;SDS011;65038;53.200;6.530;2023-02-20T14:14:25;13.98;;;5.10;;
76236;SDS011;65038;53.200;6.530;2023-02-20T14:16:51;12.77;;;4.32;;
76236;SDS011;65038;53.200;6.530;2023-02-20T14:19:27;14.05;;;4.60;;
76236;SDS011;65038;53.200;6.530;2023-02-20T14:22:11;16.65;;;4.70;;
76236;SDS011;65038;53.200;6.530;2023-02-20T14:24:37;12.18;;;4.40;;
76236;SDS011;65038;53.200;6.530;2023-02-20T14:27:22;19.38;;;5.28;;
76236;SDS011;65038;53.200;6.530;2023-02-20T14:30:02;13.80;;;4.70;;
76236;SDS011;65038;53.200;6.530;2023-02-20T14:32:28;13.45;;;4.63;;
76236;SDS011;65038;53.200;6.530;2023-02-20T14:34:56;11.70;;;4.35;;
76236;SDS011;65038;53.200;6.530;2023-02-20T14:37:29;16.73;;;4.85;;
76236;SDS011;65038;53.200;6.530;2023-02-20T14:40:13;16.83;;;4.82;;
76236;SDS011;65038;53.200;6.530;2023-02-20T14:42:42;13.98;;;4.63;;
76236;SDS011;65038;53.200;6.530;2023-02-20T14:45:14;12.68;;;4.30;;
76236;SDS011;65038;53.200;6.530;2023-02-20T14:50:18;11.00;;;4.60;;
76236;SDS011;65038;53.200;6.530;2023-02-20T14:52:45;14.95;;;4.88;;
76236;SDS011;65038;53.200;6.530;2023-02-20T14:55:16;10.80;;;4.70;;
76236;SDS011;65038;53.200;6.530;2023-02-20T14:57:42;14.98;;;4.85;;
76236;SDS011;65038;53.200;6.530;2023-02-20T15:00:22;15.93;;;4.78;;
76236;SDS011;65038;53.200;6.530;2023-02-20T15:02:49;15.18;;;4.32;;
76236;SDS011;65038;53.200;6.530;2023-02-20T15:05:17;13.57;;;4.68;;
76236;SDS011;65038;53.200;6.530;2023-02-20T15:07:46;13.68;;;4.97;;
76236;SDS011;65038;53.200;6.530;2023-02-20T15:12:59;14.63;;;4.18;;
76236;SDS011;65038;53.200;6.530;2023-02-20T15:15:25;10.27;;;4.00;;
76236;SDS011;65038;53.200;6.530;2023-02-20T15:18:04;13.30;;;4.53;;
76236;SDS011;65038;53.200;6.530;2023-02-20T15:23:06;13.23;;;4.18;;
76236;SDS011;65038;53.200;6.530;2023-02-20T15:25:32;12.75;;;3.88;;
76236;SDS011;65038;53.200;6.530;2023-02-20T15:33:54;13.32;;;4.15;;
76236;SDS011;65038;53.200;6.530;2023-02-20T15:36:21;8.87;;;4.23;;
76236;SDS011;65038;53.200;6.530;2023-02-20T15:38:49;16.27;;;4.22;;
76236;SDS011;65038;53.200;6.530;2023-02-20T15:41:16;12.25;;;4.45;;
76236;SDS011;65038;53.200;6.530;2023-02-20T15:43:42;14.23;;;4.30;;
76236;SDS011;65038;53.200;6.530;2023-02-20T15:46:08;13.57;;;4.53;;
76236;SDS011;65038;53.200;6.530;2023-02-20T15:48:35;11.10;;;4.38;;
76236;SDS011;65038;53.200;6.530;2023-02-20T15:51:01;15.93;;;4.70;;
76236;SDS011;65038;53.200;6.530;2023-02-20T15:53:28;12.23;;;4.57;;
76236;SDS011;65038;53.200;6.530;2023-02-20T15:55:55;12.18;;;4.40;;
76236;SDS011;65038;53.200;6.530;2023-02-20T15:58:23;13.18;;;4.13;;
76236;SDS011;65038;53.200;6.530;2023-02-20T16:00:50;10.60;;;4.05;;
76236;SDS011;65038;53.200;6.530;2023-02-20T16:03:18;14.43;;;4.40;;
76236;SDS011;65038;53.200;6.530;2023-02-20T16:05:44;11.50;;;4.35;;
76236;SDS011;65038;53.200;6.530;2023-02-20T16:08:10;13.45;;;4.70;;
76236;SDS011;65038;53.200;6.530;2023-02-20T16:10:36;14.95;;;4.40;;
76236;SDS011;65038;53.200;6.530;2023-02-20T16:13:02;13.13;;;4.30;;
76236;SDS011;65038;53.200;6.530;2023-02-20T16:15:28;14.80;;;4.75;;
76236;SDS011;65038;53.200;6.530;2023-02-20T16:17:55;16.75;;;4.88;;
76236;SDS011;65038;53.200;6.530;2023-02-20T16:20:23;11.60;;;4.10;;
76236;SDS011;65038;53.200;6.530;2023-02-20T16:22:49;12.77;;;4.43;;
76236;SDS011;65038;53.200;6.530;2023-02-20T16:25:17;12.38;;;4.40;;
76236;SDS011;65038;53.200;6.530;2023-02-20T16:27:43;13.25;;;4.43;;
76236;SDS011;65038;53.200;6.530;2023-02-20T16:30:18;11.45;;;4.22;;
76236;SDS011;65038;53.200;6.530;2023-02-20T16:32:45;12.35;;;4.40;;
76236;SDS011;65038;53.200;6.530;2023-02-20T16:35:11;15.18;;;4.40;;
76236;SDS011;65038;53.200;6.530;2023-02-20T16:37:38;11.77;;;4.78;;
76236;SDS011;65038;53.200;6.530;2023-02-20T16:40:04;16.70;;;4.47;;
76236;SDS011;65038;53.200;6.530;2023-02-20T16:42:31;13.82;;;4.50;;
76236;SDS011;65038;53.200;6.530;2023-02-20T16:44:58;11.30;;;4.07;;
76236;SDS011;65038;53.200;6.530;2023-02-20T16:47:27;15.88;;;4.60;;
76236;SDS011;65038;53.200;6.530;2023-02-20T16:49:55;12.57;;;4.28;;
76236;SDS011;65038;53.200;6.530;2023-02-20T16:52:36;13.75;;;5.07;;
76236;SDS011;65038;53.200;6.530;2023-02-20T16:55:05;15.85;;;4.88;;
76236;SDS011;65038;53.200;6.530;2023-02-20T16:57:31;11.63;;;4.78;;
76236;SDS011;65038;53.200;6.530;2023-02-20T16:59:58;16.70;;;4.85;;
76236;SDS011;65038;53.200;6.530;2023-02-20T17:02:25;13.95;;;4.82;;
76236;SDS011;65038;53.200;6.530;2023-02-20T17:04:51;13.07;;;4.82;;
76236;SDS011;65038;53.200;6.530;2023-02-20T17:07:18;12.43;;;4.75;;
76236;SDS011;65038;53.200;6.530;2023-02-20T17:09:44;14.63;;;5.07;;
76236;SDS011;65038;53.200;6.530;2023-02-20T17:12:11;15.43;;;5.18;;
76236;SDS011;65038;53.200;6.530;2023-02-20T17:14:37;14.05;;;5.03;;
76236;SDS011;65038;53.200;6.530;2023-02-20T17:17:03;15.90;;;5.10;;
76236;SDS011;65038;53.200;6.530;2023-02-20T17:19:30;14.25;;;5.43;;
76236;SDS011;65038;53.200;6.530;2023-02-20T17:21:56;14.40;;;5.65;;
76236;SDS011;65038;53.200;6.530;2023-02-20T17:24:23;17.40;;;5.70;;
76236;SDS011;65038;53.200;6.530;2023-02-20T17:26:52;15.25;;;6.22;;
76236;SDS011;65038;53.200;6.530;2023-02-20T17:29:18;15.73;;;5.75;;
76236;SDS011;65038;53.200;6.530;2023-02-20T17:31:44;15.15;;;6.03;;
76236;SDS011;65038;53.200;6.530;2023-02-20T17:34:10;17.48;;;6.20;;
76236;SDS011;65038;53.200;6.530;2023-02-20T17:36:36;15.82;;;6.13;;
76236;SDS011;65038;53.200;6.530;2023-02-20T17:39:02;15.50;;;6.30;;
76236;SDS011;65038;53.200;6.530;2023-02-20T17:41:29;19.92;;;6.70;;
76236;SDS011;65038;53.200;6.530;2023-02-20T17:43:55;12.93;;;6.35;;
76236;SDS011;65038;53.200;6.530;2023-02-20T17:46:21;15.75;;;6.55;;
76236;SDS011;65038;53.200;6.530;2023-02-20T17:48:47;15.05;;;6.57;;
76236;SDS011;65038;53.200;6.530;2023-02-20T17:51:17;15.80;;;7.07;;
76236;SDS011;65038;53.200;6.530;2023-02-20T17:53:43;15.68;;;6.50;;
76236;SDS011;65038;53.200;6.530;2023-02-20T17:56:15;15.85;;;6.63;;
76236;SDS011;65038;53.200;6.530;2023-02-20T17:58:42;12.90;;;7.15;;
76236;SDS011;65038;53.200;6.530;2023-02-20T18:01:08;16.17;;;7.03;;
76236;SDS011;65038;53.200;6.530;2023-02-20T18:03:35;14.52;;;6.88;;
76236;SDS011;65038;53.200;6.530;2023-02-20T18:06:01;17.17;;;6.35;;
76236;SDS011;65038;53.200;6.530;2023-02-20T18:08:27;20.85;;;7.38;;
76236;SDS011;65038;53.200;6.530;2023-02-20T18:10:53;15.23;;;6.85;;
76236;SDS011;65038;53.200;6.530;2023-02-20T18:13:19;17.15;;;6.78;;
76236;SDS011;65038;53.200;6.530;2023-02-20T18:15:45;17.52;;;6.88;;
76236;SDS011;65038;53.200;6.530;2023-02-20T18:18:11;16.58;;;7.15;;
76236;SDS011;65038;53.200;6.530;2023-02-20T18:20:39;17.00;;;7.05;;
76236;SDS011;65038;53.200;6.530;2023-02-20T18:23:05;16.52;;;7.03;;
76236;SDS011;65038;53.200;6.530;2023-02-20T18:25:31;15.75;;;6.82;;
76236;SDS011;65038;53.200;6.530;2023-02-20T18:27:57;17.17;;;7.57;;
76236;SDS011;65038;53.200;6.530;2023-02-20T18:30:24;14.13;;;6.68;;
76236;SDS011;65038;53.200;6.530;2023-02-20T18:32:50;18.17;;;7.43;;